createdAt,value
2018-07-23T00:00:41.332Z,19.10
2018-07-23T00:04:05.831Z,19.10
2018-07-23T00:07:30.307Z,19.00
2018-07-23T00:10:54.751Z,19.10
2018-07-23T00:14:19.217Z,19.00
2018-07-23T00:17:43.661Z,19.00
2018-07-23T00:21:08.154Z,18.90
2018-07-23T00:24:32.621Z,18.90
2018-07-23T00:27:57.114Z,18.90
2018-07-23T00:31:21.557Z,18.80
2018-07-23T00:34:46.035Z,18.80
2018-07-23T00:38:10.497Z,18.70
2018-07-23T00:41:34.948Z,18.70
2018-07-23T00:44:59.427Z,18.70
2018-07-23T00:48:23.885Z,18.60
2018-07-23T00:51:48.353Z,18.70
2018-07-23T00:55:12.802Z,18.60
2018-07-23T01:02:01.772Z,18.50
2018-07-23T01:05:26.220Z,18.40
2018-07-23T01:08:50.691Z,18.30
2018-07-23T01:12:33.320Z,18.30
2018-07-23T01:15:57.788Z,18.20
2018-07-23T01:19:22.309Z,18.20
2018-07-23T01:22:46.780Z,18.10
2018-07-23T01:26:11.219Z,18.00
2018-07-23T01:29:35.688Z,17.90
2018-07-23T01:33:00.163Z,17.90
2018-07-23T01:36:24.616Z,17.90
2018-07-23T01:39:49.078Z,17.90
2018-07-23T01:43:13.529Z,17.80
2018-07-23T01:46:37.992Z,17.80
2018-07-23T01:50:02.432Z,17.70
2018-07-23T01:53:26.890Z,17.70
2018-07-23T01:56:51.397Z,17.60
2018-07-23T02:00:15.864Z,17.60
2018-07-23T02:03:41.464Z,17.60
2018-07-23T02:07:06.882Z,17.50
2018-07-23T02:10:31.400Z,17.50
2018-07-23T02:13:55.871Z,17.40
2018-07-23T02:17:20.305Z,17.40
2018-07-23T02:20:44.814Z,17.40
2018-07-23T02:24:09.323Z,17.30
2018-07-23T02:27:33.956Z,17.30
2018-07-23T02:30:58.422Z,17.30
2018-07-23T02:34:22.867Z,17.30
2018-07-23T02:37:47.339Z,17.30
2018-07-23T02:41:11.875Z,17.20
2018-07-23T02:44:36.359Z,17.20
2018-07-23T02:48:00.838Z,17.20
2018-07-23T02:51:25.300Z,17.20
2018-07-23T02:54:49.752Z,17.20
2018-07-23T02:58:14.232Z,17.20
2018-07-23T03:01:38.743Z,17.20
2018-07-23T03:05:03.227Z,17.20
2018-07-23T03:08:27.688Z,17.20
2018-07-23T03:11:52.129Z,17.20
2018-07-23T03:15:16.620Z,17.20
2018-07-23T03:18:41.123Z,17.20
2018-07-23T03:22:05.581Z,17.30
2018-07-23T03:25:30.045Z,17.20
2018-07-23T03:28:54.474Z,17.20
2018-07-23T03:32:18.910Z,17.20
2018-07-23T03:35:43.366Z,17.10
2018-07-23T03:39:10.016Z,17.10
2018-07-23T03:42:34.478Z,17.10
2018-07-23T03:45:58.972Z,17.00
2018-07-23T03:49:23.434Z,17.00
2018-07-23T03:52:47.954Z,17.00
2018-07-23T03:56:12.447Z,16.90
2018-07-23T03:59:36.942Z,16.90
2018-07-23T04:03:01.404Z,16.90
2018-07-23T04:06:25.862Z,16.90
2018-07-23T04:09:50.317Z,16.90
2018-07-23T04:13:14.772Z,17.00
2018-07-23T04:16:39.228Z,17.00
2018-07-23T04:20:03.836Z,17.00
2018-07-23T04:23:28.287Z,17.10
2018-07-23T04:26:52.856Z,17.10
2018-07-23T04:30:17.328Z,17.10
2018-07-23T04:33:41.789Z,17.20
2018-07-23T04:37:06.285Z,17.20
2018-07-23T04:40:30.788Z,17.30
2018-07-23T04:43:55.267Z,17.40
2018-07-23T04:47:19.705Z,17.50
2018-07-23T04:50:44.203Z,17.70
2018-07-23T04:54:08.707Z,17.90
2018-07-23T04:57:33.296Z,18.00
2018-07-23T05:00:57.943Z,18.10
2018-07-23T05:04:22.406Z,18.20
2018-07-23T05:07:46.924Z,18.30
2018-07-23T05:11:11.363Z,18.50
2018-07-23T05:14:35.859Z,18.70
2018-07-23T05:18:00.334Z,18.90
2018-07-23T05:21:24.847Z,19.10
2018-07-23T05:24:49.313Z,19.30
2018-07-23T05:28:13.809Z,19.50
2018-07-23T05:31:38.315Z,19.80
2018-07-23T05:35:02.835Z,20.00
2018-07-23T05:41:51.607Z,20.30
2018-07-23T05:45:16.180Z,20.40
2018-07-23T05:48:40.639Z,20.40
2018-07-23T05:52:05.114Z,20.40
2018-07-23T05:55:29.558Z,20.40
2018-07-23T05:58:54.080Z,20.40
2018-07-23T06:02:18.543Z,20.40
2018-07-23T06:05:43.032Z,20.30
2018-07-23T06:09:09.832Z,20.30
2018-07-23T06:13:08.426Z,20.40
2018-07-23T06:16:33.124Z,20.40
2018-07-23T06:19:57.606Z,20.60
2018-07-23T06:23:22.077Z,20.70
2018-07-23T06:26:46.556Z,21.00
2018-07-23T06:30:12.248Z,21.10
2018-07-23T06:33:36.787Z,21.10
2018-07-23T06:37:01.273Z,21.20
2018-07-23T06:40:25.755Z,21.50
2018-07-23T06:43:50.221Z,21.90
2018-07-23T06:47:14.677Z,22.20
2018-07-23T06:50:39.256Z,22.50
2018-07-23T06:54:03.776Z,22.80
2018-07-23T06:57:28.291Z,23.00
2018-07-23T07:00:52.770Z,23.10
2018-07-23T07:04:20.245Z,23.20
2018-07-23T07:07:44.699Z,23.40
2018-07-23T07:11:09.187Z,23.50
2018-07-23T07:14:33.668Z,23.60
2018-07-23T07:17:58.186Z,23.70
2018-07-23T07:21:22.703Z,23.40
2018-07-23T07:24:47.199Z,23.30
2018-07-23T07:28:11.723Z,23.30
2018-07-23T07:31:36.250Z,23.40
2018-07-23T07:35:00.693Z,23.60
2018-07-23T07:38:25.262Z,23.80
2018-07-23T07:41:49.683Z,23.90
2018-07-23T07:45:14.178Z,23.90
2018-07-23T07:48:38.667Z,24.10
2018-07-23T07:52:03.217Z,24.50
2018-07-23T07:55:27.664Z,25.00
2018-07-23T07:58:52.169Z,25.30
2018-07-23T08:02:16.686Z,25.60
2018-07-23T08:05:41.147Z,25.70
2018-07-23T08:09:08.638Z,26.00
2018-07-23T08:12:33.171Z,26.10
2018-07-23T08:15:57.590Z,26.10
2018-07-23T08:19:22.085Z,26.30
2018-07-23T08:22:46.549Z,26.40
2018-07-23T08:26:10.992Z,26.40
2018-07-23T08:29:35.499Z,26.40
2018-07-23T08:33:00.012Z,26.30
2018-07-23T08:36:24.494Z,26.40
2018-07-23T08:39:48.975Z,26.50
2018-07-23T08:43:13.424Z,26.60
2018-07-23T08:46:37.885Z,26.60
2018-07-23T08:50:02.339Z,26.80
2018-07-23T08:53:30.337Z,26.90
2018-07-23T08:56:54.790Z,27.10
2018-07-23T09:00:19.282Z,27.40
2018-07-23T09:03:43.722Z,27.70
2018-07-23T09:07:08.142Z,28.00
2018-07-23T09:10:32.627Z,28.10
2018-07-23T09:13:57.121Z,28.30
2018-07-23T09:17:21.577Z,28.60
2018-07-23T09:20:46.012Z,28.60
2018-07-23T09:24:10.472Z,28.40
2018-07-23T09:27:35.111Z,28.60
2018-07-23T09:30:59.657Z,28.80
2018-07-23T09:34:24.023Z,28.80
2018-07-23T09:37:48.492Z,28.60
2018-07-23T09:41:12.929Z,28.70
2018-07-23T09:44:37.400Z,28.60
2018-07-23T09:48:01.872Z,28.40
2018-07-23T09:51:26.419Z,28.20
2018-07-23T09:54:50.870Z,28.20
2018-07-23T09:58:15.326Z,28.20
2018-07-23T10:01:39.839Z,28.10
2018-07-23T10:05:04.467Z,28.30
2018-07-23T10:08:28.942Z,28.70
2018-07-23T10:11:53.464Z,29.00
2018-07-23T10:15:17.958Z,29.00
2018-07-23T10:18:42.446Z,29.50
2018-07-23T10:22:07.001Z,29.90
2018-07-23T10:25:31.447Z,30.80
2018-07-23T10:28:55.919Z,31.30
2018-07-23T10:32:20.373Z,31.50
2018-07-23T10:35:44.959Z,32.40
2018-07-23T10:39:10.386Z,33.20
2018-07-23T10:42:34.908Z,33.20
2018-07-23T10:45:59.394Z,33.10
2018-07-23T10:49:23.849Z,33.10
2018-07-23T10:52:48.365Z,33.00
2018-07-23T10:56:12.843Z,33.50
2018-07-23T10:59:37.346Z,33.90
2018-07-23T11:03:01.811Z,34.50
2018-07-23T11:06:26.355Z,35.30
2018-07-23T11:09:50.839Z,36.00
2018-07-23T11:13:15.300Z,35.70
2018-07-23T11:16:39.784Z,35.30
2018-07-23T11:20:04.376Z,35.40
2018-07-23T11:23:28.867Z,36.00
2018-07-23T11:26:53.534Z,35.20
2018-07-23T11:30:18.032Z,34.50
2018-07-23T11:33:42.527Z,35.00
2018-07-23T11:37:06.999Z,34.90
2018-07-23T11:40:31.508Z,34.20
2018-07-23T11:43:55.939Z,33.60
2018-07-23T11:47:20.395Z,34.70
2018-07-23T11:50:44.909Z,35.10
2018-07-23T11:54:12.496Z,34.90
2018-07-23T11:57:36.949Z,34.90
2018-07-23T12:01:01.737Z,35.70
2018-07-23T12:04:26.269Z,36.80
2018-07-23T12:07:50.649Z,37.80
2018-07-23T12:11:15.116Z,38.70
2018-07-23T12:14:39.521Z,39.20
2018-07-23T12:18:03.991Z,38.90
2018-07-23T12:21:28.452Z,38.10
2018-07-23T12:24:52.909Z,36.80
2018-07-23T12:28:17.529Z,37.00
2018-07-23T12:31:41.978Z,37.80
2018-07-23T12:35:06.583Z,38.10
2018-07-23T12:38:31.050Z,38.40
2018-07-23T12:41:55.563Z,38.10
2018-07-23T12:45:20.053Z,38.20
2018-07-23T12:48:44.547Z,37.70
2018-07-23T12:52:09.180Z,38.60
2018-07-23T12:55:33.725Z,39.20
2018-07-23T12:58:58.263Z,40.20
2018-07-23T13:02:22.704Z,40.70
2018-07-23T13:05:47.192Z,40.60
2018-07-23T13:09:13.034Z,41.00
2018-07-23T13:12:37.511Z,41.20
2018-07-23T13:16:01.994Z,41.70
2018-07-23T13:19:26.474Z,42.10
2018-07-23T13:22:50.946Z,42.70
2018-07-23T13:26:15.478Z,41.90
2018-07-23T13:29:39.974Z,40.10
2018-07-23T13:33:04.439Z,38.40
2018-07-23T13:36:28.917Z,38.80
2018-07-23T13:39:53.432Z,38.60
2018-07-23T13:43:17.953Z,39.80
2018-07-23T13:46:42.501Z,41.10
2018-07-23T13:50:07.096Z,41.90
2018-07-23T13:53:31.608Z,42.10
2018-07-23T14:00:20.342Z,41.60
2018-07-23T14:03:44.892Z,41.30
2018-07-23T14:07:09.393Z,41.90
2018-07-23T14:10:33.906Z,42.60
2018-07-23T14:13:58.377Z,41.70
2018-07-23T14:17:22.908Z,41.90
2018-07-23T14:20:47.445Z,42.20
2018-07-23T14:24:11.936Z,40.60
2018-07-23T14:27:36.418Z,39.70
2018-07-23T14:31:00.903Z,38.40
2018-07-23T14:34:25.399Z,38.10
2018-07-23T14:37:49.901Z,38.90
2018-07-23T14:41:14.421Z,39.20
2018-07-23T14:44:38.909Z,40.70
2018-07-23T14:48:03.413Z,42.60
2018-07-23T14:51:28.028Z,44.80
2018-07-23T14:54:52.489Z,45.80
2018-07-23T14:58:17.042Z,46.20
2018-07-23T15:01:41.540Z,46.30
2018-07-23T15:05:06.535Z,46.00
2018-07-23T15:08:31.039Z,45.80
2018-07-23T15:11:55.537Z,44.30
2018-07-23T15:15:20.021Z,44.10
2018-07-23T15:18:44.501Z,42.60
2018-07-23T15:22:09.069Z,42.60
2018-07-23T15:25:33.564Z,41.80
2018-07-23T15:28:58.065Z,39.70
2018-07-23T15:32:22.511Z,38.00
2018-07-23T15:35:46.989Z,38.50
2018-07-23T15:39:11.877Z,40.60
2018-07-23T15:42:36.386Z,40.50
2018-07-23T15:46:00.941Z,39.80
2018-07-23T15:49:25.347Z,39.80
2018-07-23T15:52:49.865Z,42.60
2018-07-23T15:56:14.560Z,43.50
2018-07-23T15:59:39.021Z,43.30
2018-07-23T16:03:03.486Z,43.90
2018-07-23T16:06:28.013Z,44.90
2018-07-23T16:09:52.520Z,45.30
2018-07-23T16:13:17.011Z,45.00
2018-07-23T16:16:41.477Z,43.20
2018-07-23T16:20:06.603Z,43.40
2018-07-23T16:23:31.032Z,42.30
2018-07-23T16:26:55.440Z,40.50
2018-07-23T16:30:19.843Z,38.60
2018-07-23T16:33:44.367Z,37.10
2018-07-23T16:37:08.849Z,35.90
2018-07-23T16:40:33.387Z,35.40
2018-07-23T16:43:57.896Z,36.40
2018-07-23T16:47:22.355Z,37.80
2018-07-23T16:50:46.783Z,39.10
2018-07-23T16:54:11.284Z,39.80
2018-07-23T16:57:35.775Z,40.20
2018-07-23T17:01:00.245Z,39.70
2018-07-23T17:04:24.672Z,39.70
2018-07-23T17:07:49.125Z,39.30
2018-07-23T17:11:13.538Z,37.70
2018-07-23T17:14:38.002Z,36.60
2018-07-23T17:18:02.518Z,35.90
2018-07-23T17:21:26.900Z,35.30
2018-07-23T17:24:51.334Z,34.90
2018-07-23T17:28:15.756Z,34.60
2018-07-23T17:31:40.254Z,34.20
2018-07-23T17:35:04.745Z,33.80
2018-07-23T17:38:29.170Z,33.60
2018-07-23T17:41:53.611Z,33.40
2018-07-23T17:45:18.056Z,33.20
2018-07-23T17:48:42.490Z,33.00
2018-07-23T17:52:06.976Z,32.60
2018-07-23T17:55:31.397Z,32.40
2018-07-23T17:58:55.978Z,32.20
2018-07-23T18:02:20.578Z,32.10
2018-07-23T18:05:45.040Z,32.10
2018-07-23T18:09:11.734Z,32.10
2018-07-23T18:12:36.156Z,32.00
2018-07-23T18:16:00.602Z,32.00
2018-07-23T18:19:31.588Z,31.90
2018-07-23T18:22:55.979Z,31.90
2018-07-23T18:26:20.427Z,31.70
2018-07-23T18:29:44.921Z,31.50
2018-07-23T18:33:09.342Z,31.20
2018-07-23T18:39:57.973Z,30.90
2018-07-23T18:43:22.406Z,30.70
2018-07-23T18:46:46.894Z,30.40
2018-07-23T18:50:11.319Z,30.20
2018-07-23T18:53:35.758Z,29.90
2018-07-23T18:57:01.634Z,29.70
2018-07-23T19:00:26.076Z,29.50
2018-07-23T19:03:50.519Z,29.30
2018-07-23T19:07:14.972Z,29.10
2018-07-23T19:10:39.434Z,28.90
2018-07-23T19:14:03.962Z,28.70
2018-07-23T19:17:35.063Z,28.50
2018-07-23T19:20:59.519Z,28.30
2018-07-23T19:24:23.995Z,28.10
2018-07-23T19:27:48.444Z,27.90
2018-07-23T19:31:12.886Z,27.60
2018-07-23T19:34:37.359Z,27.40
2018-07-23T19:38:01.765Z,27.10
2018-07-23T19:41:26.967Z,27.00
2018-07-23T19:44:51.472Z,26.80
2018-07-23T19:48:15.956Z,26.60
2018-07-23T19:51:40.450Z,26.50
2018-07-23T19:55:05.054Z,26.30
2018-07-23T19:58:29.620Z,26.20
2018-07-23T20:01:54.078Z,26.10
2018-07-23T20:05:18.539Z,25.90
2018-07-23T20:08:43.796Z,25.80
2018-07-23T20:12:08.321Z,25.60
2018-07-23T20:15:32.749Z,25.40
2018-07-23T20:18:57.271Z,25.30
2018-07-23T20:22:21.710Z,25.20
2018-07-23T20:25:46.224Z,25.10
2018-07-23T20:29:10.672Z,25.00
2018-07-23T20:32:35.132Z,25.00
2018-07-23T20:35:59.571Z,24.90
2018-07-23T20:39:24.099Z,24.80
2018-07-23T20:42:48.548Z,24.80
2018-07-23T20:46:13.008Z,24.60
2018-07-23T20:49:37.469Z,24.60
2018-07-23T20:53:01.911Z,24.40
2018-07-23T20:56:26.408Z,24.30
2018-07-23T20:59:50.858Z,24.20
2018-07-23T21:03:15.290Z,24.20
2018-07-23T21:06:39.758Z,24.10
2018-07-23T21:10:04.329Z,24.00
2018-07-23T21:13:28.761Z,23.90
2018-07-23T21:16:53.242Z,23.90
2018-07-23T21:20:17.761Z,23.80
2018-07-23T21:23:42.272Z,23.80
2018-07-23T21:27:06.772Z,23.60
2018-07-23T21:30:31.241Z,23.50
2018-07-23T21:33:55.703Z,23.50
2018-07-23T21:37:20.160Z,23.40
2018-07-23T21:40:44.574Z,23.30
2018-07-23T21:44:09.057Z,23.30
2018-07-23T21:47:33.529Z,23.20
2018-07-23T21:50:57.999Z,23.10
2018-07-23T21:54:22.521Z,23.00
2018-07-23T21:57:46.949Z,23.00
2018-07-23T22:01:11.447Z,22.90
2018-07-23T22:04:35.970Z,22.80
2018-07-23T22:08:00.445Z,22.80
2018-07-23T22:11:24.900Z,22.70
2018-07-23T22:14:49.372Z,22.70
2018-07-23T22:18:13.810Z,22.60
2018-07-23T22:21:38.287Z,22.50
2018-07-23T22:25:02.741Z,22.40
2018-07-23T22:28:27.197Z,22.40
2018-07-23T22:31:51.698Z,22.30
2018-07-23T22:35:16.152Z,22.30
2018-07-23T22:38:40.630Z,22.30
2018-07-23T22:42:05.267Z,22.20
2018-07-23T22:45:29.712Z,22.20
2018-07-23T22:48:54.192Z,22.20
2018-07-23T22:52:18.651Z,22.20
2018-07-23T22:55:43.102Z,22.10
2018-07-23T22:59:07.554Z,22.10
2018-07-23T23:02:31.985Z,21.90
2018-07-23T23:05:56.465Z,21.80
2018-07-23T23:09:20.882Z,21.80
2018-07-23T23:12:45.366Z,21.80
2018-07-23T23:16:09.854Z,21.70
2018-07-23T23:19:34.283Z,21.70
2018-07-23T23:22:58.731Z,21.60
2018-07-23T23:26:23.196Z,21.50
2018-07-23T23:29:47.657Z,21.50
2018-07-23T23:33:12.122Z,21.50
2018-07-23T23:36:36.593Z,21.40
2018-07-23T23:40:01.056Z,21.40
2018-07-23T23:43:25.526Z,21.40
2018-07-23T23:46:50.011Z,21.30
2018-07-23T23:50:14.485Z,21.20
2018-07-23T23:57:03.153Z,21.20
